createdAt,value
2023-01-09T00:02:46.371Z,46.86
2023-01-09T00:07:54.749Z,46.94
2023-01-09T00:13:03.151Z,46.89
2023-01-09T00:18:11.980Z,46.68
2023-01-09T00:23:20.341Z,46.81
2023-01-09T00:28:28.678Z,46.69
2023-01-09T00:33:40.703Z,46.88
2023-01-09T00:38:49.264Z,46.78
2023-01-09T00:44:05.449Z,46.31
2023-01-09T00:49:16.464Z,46.65
2023-01-09T00:54:26.237Z,46.64
2023-01-09T00:59:34.816Z,46.61
2023-01-09T01:05:01.682Z,46.69
2023-01-09T01:10:16.335Z,46.62
2023-01-09T01:15:29.285Z,46.55
2023-01-09T01:20:37.662Z,46.50
2023-01-09T01:25:46.603Z,46.52
2023-01-09T01:30:55.053Z,46.21
2023-01-09T01:36:10.844Z,46.42
2023-01-09T01:41:29.814Z,46.25
2023-01-09T01:46:38.459Z,46.41
2023-01-09T01:51:53.363Z,46.17
2023-01-09T01:57:08.592Z,46.35
2023-01-09T02:02:18.940Z,46.36
2023-01-09T02:07:27.590Z,46.32
2023-01-09T02:12:35.868Z,46.40
2023-01-09T02:18:33.829Z,46.34
2023-01-09T02:24:49.585Z,46.28
2023-01-09T02:30:32.018Z,46.29
2023-01-09T02:36:03.007Z,46.21
2023-01-09T02:41:19.135Z,46.29
2023-01-09T02:46:27.459Z,46.15
2023-01-09T02:51:42.647Z,46.11
2023-01-09T02:57:17.496Z,46.11
2023-01-09T03:02:47.262Z,46.06
2023-01-09T03:08:03.021Z,46.14
2023-01-09T03:13:17.442Z,46.07
2023-01-09T03:18:32.289Z,45.81
2023-01-09T03:23:53.930Z,46.06
2023-01-09T03:29:02.672Z,45.91
2023-01-09T03:34:10.931Z,46.00
2023-01-09T03:39:19.251Z,46.05
2023-01-09T03:44:27.759Z,45.98
2023-01-09T03:49:36.043Z,46.00
2023-01-09T03:54:44.350Z,45.80
2023-01-09T03:59:52.719Z,45.91
2023-01-09T04:05:01.030Z,45.71
2023-01-09T04:10:11.331Z,45.99
2023-01-09T04:15:20.179Z,46.10
2023-01-09T04:20:28.647Z,45.74
2023-01-09T04:25:37.012Z,45.91
2023-01-09T04:30:45.800Z,46.04
2023-01-09T04:35:54.146Z,45.97
2023-01-09T04:41:02.487Z,45.94
2023-01-09T04:46:10.960Z,45.85
2023-01-09T04:51:19.292Z,45.87
2023-01-09T04:56:31.236Z,46.01
2023-01-09T05:01:39.988Z,45.74
2023-01-09T05:06:48.366Z,46.05
2023-01-09T05:11:56.797Z,45.77
2023-01-09T05:17:05.270Z,46.06
2023-01-09T05:22:14.458Z,45.94
2023-01-09T05:27:22.805Z,46.02
2023-01-09T05:32:31.348Z,45.94
2023-01-09T05:37:40.358Z,46.04
2023-01-09T05:42:49.946Z,46.29
2023-01-09T05:47:58.376Z,46.25
2023-01-09T05:53:06.756Z,46.14
2023-01-09T05:58:15.089Z,46.09
2023-01-09T06:03:23.404Z,45.95
2023-01-09T06:08:31.662Z,46.02
2023-01-09T06:13:40.011Z,46.31
2023-01-09T06:18:48.394Z,46.63
2023-01-09T06:23:56.702Z,46.83
2023-01-09T06:29:05.023Z,47.86
2023-01-09T06:34:14.015Z,49.39
2023-01-09T06:39:22.958Z,49.51
2023-01-09T06:44:32.988Z,49.37
2023-01-09T06:49:41.284Z,49.28
2023-01-09T06:54:49.573Z,49.49
2023-01-09T06:59:57.874Z,49.15
2023-01-09T07:05:08.592Z,48.93
2023-01-09T07:10:17.739Z,49.26
2023-01-09T07:15:26.087Z,49.26
2023-01-09T07:20:34.514Z,49.15
2023-01-09T07:25:44.214Z,49.19
2023-01-09T07:30:52.833Z,49.04
2023-01-09T07:36:01.286Z,48.77
2023-01-09T07:41:09.793Z,48.71
2023-01-09T07:46:18.067Z,48.68
2023-01-09T07:51:26.500Z,48.95
2023-01-09T07:56:34.983Z,48.49
2023-01-09T08:01:43.407Z,48.38
2023-01-09T08:06:51.800Z,48.25
2023-01-09T08:12:00.331Z,48.00
2023-01-09T08:17:09.385Z,47.90
2023-01-09T08:22:17.692Z,47.93
2023-01-09T08:27:26.045Z,47.91
2023-01-09T08:32:34.316Z,47.75
2023-01-09T08:37:46.177Z,48.07
2023-01-09T08:43:12.352Z,47.92
2023-01-09T08:48:20.917Z,47.92
2023-01-09T08:53:29.633Z,48.13
2023-01-09T08:58:37.943Z,47.91
2023-01-09T09:03:46.391Z,48.43
2023-01-09T09:08:54.640Z,48.06
2023-01-09T09:14:25.802Z,48.19
2023-01-09T09:19:34.250Z,48.24
2023-01-09T09:24:42.506Z,48.03
2023-01-09T09:29:50.894Z,48.16
2023-01-09T09:34:59.086Z,48.17
2023-01-09T09:40:18.662Z,48.34
2023-01-09T09:45:45.233Z,48.23
2023-01-09T09:51:33.272Z,48.21
2023-01-09T09:56:47.645Z,49.05
2023-01-09T10:02:00.184Z,49.19
2023-01-09T10:07:18.466Z,50.41
2023-01-09T10:12:33.100Z,50.25
2023-01-09T10:18:11.119Z,50.70
2023-01-09T10:23:46.017Z,50.69
2023-01-09T10:29:16.332Z,50.12
2023-01-09T10:34:42.248Z,50.12
2023-01-09T10:40:01.930Z,50.01
2023-01-09T10:45:20.498Z,49.97
2023-01-09T10:50:35.174Z,49.67
2023-01-09T10:55:48.241Z,49.68
2023-01-09T11:01:00.329Z,49.15
2023-01-09T11:06:25.690Z,49.40
2023-01-09T11:11:40.759Z,49.38
2023-01-09T11:17:04.677Z,49.39
2023-01-09T11:22:20.147Z,49.75
2023-01-09T11:27:29.127Z,49.54
2023-01-09T11:32:39.417Z,49.56
2023-01-09T11:37:47.046Z,49.61
2023-01-09T11:43:17.950Z,49.41
2023-01-09T11:48:54.653Z,49.30
2023-01-09T11:54:31.081Z,49.51
2023-01-09T11:59:39.930Z,49.23
2023-01-09T12:04:56.626Z,49.83
2023-01-09T12:10:23.486Z,49.48
2023-01-09T12:15:40.094Z,50.36
2023-01-09T12:21:22.090Z,49.60
2023-01-09T12:26:34.912Z,49.42
2023-01-09T12:32:02.015Z,49.32
2023-01-09T12:37:35.192Z,49.61
2023-01-09T12:42:56.325Z,49.45
2023-01-09T12:48:19.011Z,49.17
2023-01-09T12:53:32.338Z,49.08
2023-01-09T12:58:50.443Z,49.63
2023-01-09T13:04:10.808Z,49.17
2023-01-09T13:09:30.569Z,49.24
2023-01-09T13:14:55.881Z,48.96
2023-01-09T13:20:05.893Z,48.58
2023-01-09T13:25:41.023Z,48.35
2023-01-09T13:31:27.088Z,48.33
2023-01-09T13:36:40.782Z,48.19
2023-01-09T13:42:16.561Z,48.13
2023-01-09T13:47:28.507Z,47.79
2023-01-09T13:52:40.293Z,48.58
2023-01-09T13:58:34.600Z,48.28
2023-01-09T14:03:42.950Z,49.12
2023-01-09T14:09:09.119Z,48.98
2023-01-09T14:14:30.153Z,50.08
2023-01-09T14:19:41.974Z,49.28
2023-01-09T14:24:56.297Z,49.80
2023-01-09T14:30:31.079Z,48.98
2023-01-09T14:35:54.502Z,49.06
2023-01-09T14:41:12.352Z,49.06
2023-01-09T14:46:24.223Z,48.73
2023-01-09T14:51:37.244Z,48.85
2023-01-09T14:56:50.186Z,48.70
2023-01-09T15:01:59.719Z,48.68
2023-01-09T15:07:08.758Z,48.66
2023-01-09T15:12:22.427Z,48.61
2023-01-09T15:17:38.862Z,48.49
2023-01-09T15:22:51.170Z,48.54
2023-01-09T15:28:03.379Z,48.50
2023-01-09T15:33:19.084Z,48.68
2023-01-09T15:38:28.677Z,48.24
2023-01-09T15:43:41.491Z,48.28
2023-01-09T15:49:03.826Z,48.34
2023-01-09T15:54:17.546Z,48.73
2023-01-09T15:59:30.752Z,49.39
2023-01-09T16:04:44.692Z,50.52
2023-01-09T16:09:54.624Z,49.85
2023-01-09T16:15:03.867Z,50.24
2023-01-09T16:20:27.855Z,50.17
2023-01-09T16:25:39.369Z,50.39
2023-01-09T16:30:57.397Z,50.35
2023-01-09T16:36:10.124Z,50.66
2023-01-09T16:41:40.335Z,50.59
2023-01-09T16:46:49.298Z,50.06
2023-01-09T16:52:03.033Z,50.19
2023-01-09T16:57:15.278Z,50.48
2023-01-09T17:02:24.222Z,50.27
2023-01-09T17:07:34.161Z,50.33
2023-01-09T17:12:42.758Z,49.89
2023-01-09T17:17:51.803Z,49.97
2023-01-09T17:23:00.221Z,49.88
2023-01-09T17:28:34.022Z,49.99
2023-01-09T17:33:42.879Z,49.73
2023-01-09T17:38:55.140Z,49.49
2023-01-09T17:44:04.674Z,49.47
2023-01-09T17:49:18.572Z,49.55
2023-01-09T17:54:26.907Z,49.06
2023-01-09T17:59:35.332Z,48.32
2023-01-09T18:04:43.681Z,48.28
2023-01-09T18:09:52.174Z,49.55
2023-01-09T18:15:01.307Z,49.28
2023-01-09T18:20:12.875Z,49.05
2023-01-09T18:25:21.370Z,49.10
2023-01-09T18:30:30.014Z,48.99
2023-01-09T18:35:38.891Z,48.98
2023-01-09T18:40:47.516Z,49.12
2023-01-09T18:45:56.735Z,49.04
2023-01-09T18:51:09.916Z,49.11
2023-01-09T18:56:19.215Z,49.11
2023-01-09T19:01:29.150Z,48.84
2023-01-09T19:06:37.851Z,48.94
2023-01-09T19:11:46.194Z,48.92
2023-01-09T19:16:58.528Z,48.81
2023-01-09T19:22:06.839Z,48.72
2023-01-09T19:27:15.142Z,48.67
2023-01-09T19:32:23.630Z,48.67
2023-01-09T19:37:32.427Z,48.66
2023-01-09T19:42:40.709Z,48.80
2023-01-09T19:47:50.127Z,48.97
2023-01-09T19:52:58.489Z,49.44
2023-01-09T19:58:06.985Z,48.69
2023-01-09T20:03:15.292Z,48.59
2023-01-09T20:08:23.550Z,48.60
2023-01-09T20:13:31.925Z,48.77
2023-01-09T20:18:40.799Z,48.56
2023-01-09T20:23:49.176Z,48.83
2023-01-09T20:28:58.481Z,48.87
2023-01-09T20:34:06.874Z,48.48
2023-01-09T20:39:16.350Z,48.58
2023-01-09T20:44:25.046Z,49.20
2023-01-09T20:49:33.387Z,48.60
2023-01-09T20:54:42.769Z,48.78
2023-01-09T20:59:59.521Z,48.99
2023-01-09T21:05:09.730Z,48.59
2023-01-09T21:10:18.811Z,48.80
2023-01-09T21:15:27.170Z,48.84
2023-01-09T21:20:35.385Z,48.81
2023-01-09T21:25:44.564Z,48.75
2023-01-09T21:30:54.134Z,48.84
2023-01-09T21:36:02.680Z,48.62
2023-01-09T21:41:43.496Z,48.69
2023-01-09T21:46:56.123Z,48.82
2023-01-09T21:52:05.249Z,49.02
2023-01-09T21:57:14.073Z,48.83
2023-01-09T22:02:22.403Z,48.63
2023-01-09T22:07:30.850Z,48.83
2023-01-09T22:12:39.336Z,48.95
2023-01-09T22:17:47.710Z,48.85
2023-01-09T22:22:58.452Z,48.83
2023-01-09T22:28:09.992Z,48.62
2023-01-09T22:33:18.904Z,48.41
2023-01-09T22:38:27.339Z,48.38
2023-01-09T22:43:35.663Z,48.27
2023-01-09T22:48:44.481Z,47.95
2023-01-09T22:53:54.027Z,48.15
2023-01-09T22:59:02.464Z,48.04
2023-01-09T23:04:14.484Z,48.11
2023-01-09T23:09:23.036Z,48.10
2023-01-09T23:14:32.579Z,48.15
2023-01-09T23:19:41.432Z,48.13
2023-01-09T23:24:49.987Z,48.11
2023-01-09T23:29:58.596Z,47.92
2023-01-09T23:35:08.220Z,48.00
2023-01-09T23:40:17.770Z,47.95
2023-01-09T23:45:26.159Z,47.82
2023-01-09T23:50:34.808Z,47.78
2023-01-09T23:55:43.344Z,47.78
